ENMS  Mosjøen Airport, Kjærstad Airport

Add Bookmark

Norway

Status IATA
Operational MJF
Latitude Longitude
65° 47' 2" N 13° 12' 53" E
65.783997 13.214900
Local (DST + 2) UTC (GMT + 1)
Mar 1, 2015 05:35 Mar 1, 2015 16:35
Sunrise-Sunset Local UTC
Begin Civil Twilight 06:24 05:24
Sunrise 07:15 06:15
Sunset 05:23 16:23
End Civil Twilight 06:14 17:14

Current Weather

METAR Observed VFR
ENMS 011620Z 15015KT 9999 FEW034 BKN040 06/M02 Q0977 Sun, Mar 1, 2015 @ 16:20 UTC
(15 Minutes ago)
Visual Flight Rules
Wind Visibility Clouds Conditions
150° at 15 knots (28 kph) 10 km or more
  • Few at 3,400' AGL
  • Broken at 4,000' AGL
  • No significant weather
Temperatures Readings Precipitation
Current Temp 6°C (43°F)
Dewpoint -2°C (28°F)
Humidity 57%
Altimeter 28.85"Hg
Sea Level Pressure 977mb
Field Elevation 229.66'
None Recorded

Additional weather within a 92.6km radius of ENMS

Map ICAO Location
ENST 38.9km W (300°)
ENBN 58.2km S (232°)
ENRA 80.9km N (037°)
ESUT 85.2km E (087°)

24 Hour Weather History

Loading
-

24 Hour Weather Graphs

Loading
-

CheckWX.com is intended as a tool to help pilots better visualize weather data. It is not intended as a substitute for an official weather briefing obtained from a Flight Service Station. CheckWX.com does not meet the FAA requirements for an official pre-flight weather briefing. Therefore, it's important that pilots still call and obtain an official FSS pre-flight weather briefing.